Time;durP1;ratioP1;P1;durP2;ratioP2;P2;SDS_P1;SDS_P2;PMS_P1;PMS_P2;Temp;Humidity;BMP_temperature;BMP_pressure;BME280_temperature;BME280_humidity;BME280_pressure;Samples;Min_cycle;Max_cycle;Signal;HPM_P1;HPM_P2
2022/09/09 00:01:09;;;;;;;14.57;2.70;;;15.60;99.90;;;;;;5106520;27;20035;-72
2022/09/09 00:03:49;;;;;;;16.25;2.70;;;15.60;99.90;;;;;;5099427;27;20602;-72
2022/09/09 00:06:30;;;;;;;18.60;2.90;;;15.60;99.90;;;;;;5087507;28;20500;-72
2022/09/09 00:09:18;;;;;;;12.38;2.88;;;15.60;99.90;;;;;;5106794;27;20252;-72
2022/09/09 00:12:10;;;;;;;13.63;2.97;;;15.60;99.90;;;;;;5092102;28;20088;-72
2022/09/09 00:14:51;;;;;;;14.38;3.13;;;15.50;99.90;;;;;;5108657;27;20111;-73
2022/09/09 00:17:39;;;;;;;8.27;1.75;;;15.50;99.90;;;;;;5106054;28;20028;-72
2022/09/09 00:20:19;;;;;;;9.25;1.80;;;15.50;99.90;;;;;;5112740;27;20043;-72
2022/09/09 00:23:06;;;;;;;7.93;1.38;;;15.50;99.90;;;;;;5119873;27;20058;-72
2022/09/09 00:25:45;;;;;;;7.80;1.40;;;15.40;99.90;;;;;;5115744;27;20035;-71
2022/09/09 00:28:22;;;;;;;4.10;1.00;;;15.40;99.90;;;;;;5108559;27;20043;-72
2022/09/09 00:30:48;;;;;;;6.18;1.35;;;15.40;99.90;;;;;;5104085;28;20031;-70
2022/09/09 00:33:15;;;;;;;6.85;1.50;;;15.30;99.90;;;;;;5103468;27;20038;-71
2022/09/09 00:35:54;;;;;;;9.93;1.52;;;15.30;99.90;;;;;;5115886;27;20130;-71
2022/09/09 00:38:33;;;;;;;8.50;1.42;;;15.30;99.90;;;;;;5116335;27;20031;-71
2022/09/09 00:41:31;;;;;;;14.15;2.17;;;15.30;99.90;;;;;;5109653;27;20046;-71
2022/09/09 00:44:21;;;;;;;7.18;1.58;;;15.20;99.90;;;;;;5104684;28;20059;-71
2022/09/09 00:47:08;;;;;;;10.02;1.70;;;15.20;99.90;;;;;;5087360;28;20105;-71
2022/09/09 00:49:55;;;;;;;11.38;1.75;;;15.20;99.90;;;;;;5112538;27;20042;-71
2022/09/09 00:52:45;;;;;;;10.90;1.63;;;15.20;99.90;;;;;;5107186;27;20036;-71
2022/09/09 00:55:18;;;;;;;8.77;1.60;;;15.30;99.90;;;;;;5086632;28;20032;-71
2022/09/09 00:57:46;;;;;;;8.07;1.60;;;15.20;99.90;;;;;;5115305;27;20046;-72
2022/09/09 01:00:27;;;;;;;8.55;1.70;;;15.30;99.90;;;;;;5105738;27;20589;-71
2022/09/09 01:03:17;;;;;;;7.38;1.80;;;15.20;99.90;;;;;;5111344;27;20110;-71
2022/09/09 01:06:21;;;;;;;8.05;1.50;;;15.20;99.90;;;;;;5090475;28;20508;-71
2022/09/09 01:09:05;;;;;;;13.35;2.20;;;15.20;99.90;;;;;;5061108;27;20413;-71
2022/09/09 01:11:52;;;;;;;7.28;1.55;;;15.20;99.90;;;;;;5104502;28;20031;-71
2022/09/09 01:14:43;;;;;;;9.18;1.60;;;15.20;99.90;;;;;;5106266;28;20031;-71
2022/09/09 01:17:23;;;;;;;7.38;1.50;;;15.20;99.90;;;;;;5103860;28;20130;-71
2022/09/09 01:20:13;;;;;;;8.63;1.75;;;15.20;99.90;;;;;;5101041;28;20104;-71
2022/09/09 01:22:57;;;;;;;9.93;1.90;;;15.20;99.90;;;;;;5103181;28;20047;-71
2022/09/09 01:25:44;;;;;;;8.20;1.60;;;15.20;99.90;;;;;;5104851;27;20042;-70
2022/09/09 01:28:29;;;;;;;8.50;1.83;;;15.10;99.90;;;;;;5117962;28;20035;-71
2022/09/09 01:30:57;;;;;;;8.50;1.38;;;15.20;99.90;;;;;;5106001;28;20035;-70
2022/09/09 01:33:22;;;;;;;8.23;1.40;;;15.20;99.90;;;;;;5112349;28;20031;-70
2022/09/09 01:36:03;;;;;;;8.25;1.63;;;15.10;99.90;;;;;;5111129;28;20401;-71
2022/09/09 01:38:30;;;;;;;6.97;1.90;;;15.10;99.90;;;;;;5087512;28;20658;-71
2022/09/09 01:40:56;;;;;;;6.90;1.30;;;15.10;99.90;;;;;;5108735;28;20039;-72
2022/09/09 01:43:23;;;;;;;11.35;1.73;;;15.10;99.90;;;;;;5112468;28;20051;-71
2022/09/09 01:45:52;;;;;;;10.98;1.92;;;15.00;99.90;;;;;;5113283;28;20079;-71
2022/09/09 01:48:18;;;;;;;9.45;1.58;;;15.00;99.90;;;;;;5099752;28;20145;-71
2022/09/09 01:50:44;;;;;;;9.98;1.90;;;15.10;99.90;;;;;;5095102;28;20032;-72
2022/09/09 01:53:12;;;;;;;8.13;1.52;;;15.10;99.90;;;;;;5105099;28;20712;-71
2022/09/09 01:55:41;;;;;;;9.07;1.75;;;15.00;99.90;;;;;;5111017;28;20039;-71
2022/09/09 01:58:16;;;;;;;10.45;2.20;;;15.10;99.90;;;;;;5112599;28;20031;-71
2022/09/09 02:00:50;;;;;;;5.05;1.20;;;15.10;99.90;;;;;;5101740;28;20048;-72
2022/09/09 02:03:27;;;;;;;9.13;2.05;;;15.10;99.90;;;;;;5102153;28;20097;-72
2022/09/09 02:06:10;;;;;;;9.60;1.80;;;15.10;99.90;;;;;;5108911;28;20024;-72
2022/09/09 02:09:05;;;;;;;8.93;1.88;;;15.10;99.90;;;;;;5108402;27;20028;-71
2022/09/09 02:11:32;;;;;;;6.97;1.73;;;15.10;99.90;;;;;;5088772;27;20247;-71
2022/09/09 02:14:08;;;;;;;8.18;1.70;;;15.00;99.90;;;;;;5116155;27;20114;-71
2022/09/09 02:16:55;;;;;;;9.82;2.20;;;15.00;99.90;;;;;;5104125;28;20031;-71
2022/09/09 02:19:30;;;;;;;11.00;2.30;;;15.00;99.90;;;;;;5108978;27;20028;-71
2022/09/09 02:21:59;;;;;;;8.60;2.45;;;15.00;99.90;;;;;;5110122;27;20099;-71
2022/09/09 02:24:27;;;;;;;9.35;2.47;;;14.90;99.90;;;;;;5108735;27;20028;-72
2022/09/09 02:26:55;;;;;;;10.82;2.17;;;14.90;99.90;;;;;;5106344;27;20063;-71
2022/09/09 02:29:34;;;;;;;10.32;2.40;;;14.90;99.90;;;;;;5097129;28;20031;-72
2022/09/09 02:32:05;;;;;;;8.80;2.10;;;14.90;99.90;;;;;;5089858;28;20085;-72
2022/09/09 02:34:34;;;;;;;8.57;1.80;;;14.90;99.90;;;;;;5112929;27;20498;-72
2022/09/09 02:37:02;;;;;;;6.10;1.80;;;14.80;99.90;;;;;;5110106;27;20500;-72
2022/09/09 02:39:28;;;;;;;9.30;2.35;;;14.80;99.90;;;;;;5113433;27;20423;-72
2022/09/09 02:41:54;;;;;;;9.00;2.75;;;14.80;99.90;;;;;;5099900;27;20050;-71
2022/09/09 02:44:19;;;;;;;6.53;2.20;;;14.80;99.90;;;;;;5107120;27;20051;-72
2022/09/09 02:47:03;;;;;;;10.18;2.95;;;14.80;99.90;;;;;;5104657;28;20035;-72
2022/09/09 02:49:49;;;;;;;8.27;3.00;;;14.80;99.90;;;;;;5117239;27;20084;-72
2022/09/09 02:52:19;;;;;;;10.32;2.58;;;14.70;99.90;;;;;;5107119;27;20027;-71
2022/09/09 02:54:44;;;;;;;;;;;14.70;99.90;;;;;;5101201;27;20038;-72
2022/09/09 02:57:19;;;;;;;8.02;2.25;;;14.60;99.90;;;;;;5109511;27;19912;-71
2022/09/09 02:59:45;;;;;;;10.27;2.53;;;14.60;99.90;;;;;;5118980;27;20039;-71
2022/09/09 03:02:12;;;;;;;7.70;2.50;;;14.60;99.90;;;;;;5109418;27;20039;-70
2022/09/09 03:04:38;;;;;;;9.68;2.67;;;14.60;99.90;;;;;;5110431;27;20048;-70
2022/09/09 03:07:04;;;;;;;9.50;2.53;;;14.60;99.90;;;;;;5119579;27;20035;-70
2022/09/09 03:09:30;;;;;;;7.22;2.28;;;14.60;99.90;;;;;;5108154;27;20027;-70
2022/09/09 03:11:56;;;;;;;7.43;2.38;;;14.60;99.90;;;;;;5115068;27;20122;-70
2022/09/09 03:14:24;;;;;;;8.27;2.38;;;14.50;99.90;;;;;;5106095;27;20428;-70
2022/09/09 03:16:51;;;;;;;10.88;2.42;;;14.60;99.90;;;;;;5107444;27;20027;-70
2022/09/09 03:19:18;;;;;;;11.02;2.78;;;14.50;99.90;;;;;;5115662;27;20466;-70
2022/09/09 03:21:45;;;;;;;8.73;2.40;;;14.50;99.90;;;;;;5103366;28;20122;-70
2022/09/09 03:24:11;;;;;;;8.35;2.40;;;14.50;99.90;;;;;;5106457;28;20474;-70
2022/09/09 03:26:37;;;;;;;7.90;2.25;;;14.50;99.90;;;;;;5104752;28;20100;-71
2022/09/09 03:29:06;;;;;;;8.65;2.10;;;14.50;99.90;;;;;;5109755;27;20044;-70
2022/09/09 03:31:36;;;;;;;7.35;2.53;;;14.50;99.90;;;;;;5106795;27;20031;-71
2022/09/09 03:34:01;;;;;;;;;;;14.50;99.90;;;;;;5107498;27;20038;-71
2022/09/09 03:36:28;;;;;;;8.00;1.90;;;14.60;99.90;;;;;;5112674;27;20509;-70
2022/09/09 03:38:54;;;;;;;6.35;1.95;;;14.60;99.90;;;;;;5111914;27;20035;-70
2022/09/09 03:41:23;;;;;;;8.05;2.08;;;14.60;99.90;;;;;;5111666;27;20034;-71
2022/09/09 03:43:51;;;;;;;5.77;1.70;;;14.60;99.90;;;;;;5112363;27;20043;-71
2022/09/09 03:46:17;;;;;;;8.35;2.05;;;14.60;99.90;;;;;;5087914;28;20465;-71
2022/09/09 03:48:43;;;;;;;5.30;1.70;;;14.60;99.90;;;;;;5104234;27;20134;-70
2022/09/09 03:51:10;;;;;;;5.30;1.60;;;14.60;99.90;;;;;;5090273;28;20122;-70
2022/09/09 03:53:38;;;;;;;9.13;2.10;;;14.70;99.90;;;;;;5104995;27;20076;-70
2022/09/09 03:56:06;;;;;;;7.80;1.73;;;14.70;99.90;;;;;;5110326;27;20027;-70
2022/09/09 03:58:33;;;;;;;8.60;2.13;;;14.70;99.90;;;;;;5105224;27;20138;-71
2022/09/09 04:01:05;;;;;;;7.65;1.90;;;14.70;99.90;;;;;;5105425;28;20427;-70
2022/09/09 04:03:31;;;;;;;6.90;1.95;;;14.70;99.90;;;;;;5120891;27;20039;-71
2022/09/09 04:05:59;;;;;;;7.25;1.95;;;14.70;99.90;;;;;;5110716;27;20023;-71
2022/09/09 04:08:25;;;;;;;5.93;1.92;;;14.80;99.90;;;;;;5108035;27;20031;-71
2022/09/09 04:10:51;;;;;;;5.47;1.70;;;14.70;99.90;;;;;;5087005;28;20032;-70
2022/09/09 04:13:19;;;;;;;7.85;1.60;;;14.80;99.90;;;;;;5108892;27;20034;-71
2022/09/09 04:15:54;;;;;;;6.40;1.63;;;14.80;99.90;;;;;;5099418;27;20030;-73
2022/09/09 04:18:20;;;;;;;7.30;1.75;;;14.80;99.90;;;;;;5105188;27;20699;-73
2022/09/09 04:20:50;;;;;;;6.30;1.63;;;14.80;99.90;;;;;;5105493;27;20419;-73
2022/09/09 04:23:18;;;;;;;6.68;1.60;;;14.80;99.90;;;;;;5113922;27;20031;-73
2022/09/09 04:25:54;;;;;;;3.55;1.48;;;14.80;99.90;;;;;;5108095;27;20031;-72
2022/09/09 04:28:22;;;;;;;5.28;1.60;;;14.80;99.90;;;;;;5103879;27;20039;-72
2022/09/09 04:30:48;;;;;;;4.30;1.40;;;14.80;99.90;;;;;;5104643;27;20127;-72
2022/09/09 04:33:15;;;;;;;5.05;1.67;;;14.80;99.90;;;;;;5088968;28;20035;-72
2022/09/09 04:35:48;;;;;;;5.25;1.30;;;14.80;99.90;;;;;;5106700;27;20031;-72
2022/09/09 04:38:15;;;;;;;3.78;1.55;;;14.80;99.90;;;;;;5105210;27;20040;-71
2022/09/09 04:40:46;;;;;;;5.55;1.60;;;14.80;99.90;;;;;;5094019;27;20126;-72
2022/09/09 04:43:12;;;;;;;5.30;1.80;;;14.70;99.90;;;;;;5104965;27;20031;-72
2022/09/09 04:45:40;;;;;;;7.57;2.00;;;14.80;99.90;;;;;;5105337;27;20044;-72
2022/09/09 04:48:06;;;;;;;7.07;1.80;;;14.80;99.90;;;;;;5108325;27;20087;-72
2022/09/09 04:50:31;;;;;;;5.35;1.60;;;14.70;99.90;;;;;;5086173;28;20031;-73
2022/09/09 04:53:01;;;;;;;6.47;2.00;;;14.80;99.90;;;;;;5089175;28;20040;-73
2022/09/09 04:55:27;;;;;;;7.20;1.90;;;14.80;99.90;;;;;;5110615;27;20039;-72
2022/09/09 04:57:52;;;;;;;5.82;1.52;;;14.70;99.90;;;;;;5094195;27;20500;-73
2022/09/09 05:00:18;;;;;;;6.85;2.08;;;14.80;99.90;;;;;;5106472;27;20032;-73
2022/09/09 05:02:44;;;;;;;6.47;1.70;;;14.80;99.90;;;;;;5083391;28;20035;-73
2022/09/09 05:05:11;;;;;;;6.75;1.85;;;14.80;99.90;;;;;;5097134;27;20023;-73
2022/09/09 05:07:37;;;;;;;7.47;2.13;;;14.80;99.90;;;;;;5116922;27;20027;-72
2022/09/09 05:10:04;;;;;;;6.70;1.77;;;14.80;99.90;;;;;;5111010;27;20054;-72
2022/09/09 05:12:31;;;;;;;8.65;2.15;;;14.80;99.90;;;;;;5105841;27;20027;-72
2022/09/09 05:14:57;;;;;;;10.20;2.60;;;14.80;99.90;;;;;;5109807;27;20032;-72
2022/09/09 05:17:23;;;;;;;5.65;1.92;;;14.80;99.90;;;;;;5106442;27;20471;-73
2022/09/09 05:19:49;;;;;;;8.55;2.40;;;14.80;99.90;;;;;;5113231;27;20514;-73
2022/09/09 05:22:22;;;;;;;8.07;2.10;;;14.80;99.90;;;;;;5108581;28;20789;-73
2022/09/09 05:24:50;;;;;;;11.27;2.30;;;14.80;99.90;;;;;;5103723;28;20035;-72
2022/09/09 05:27:17;;;;;;;5.53;2.30;;;14.80;99.90;;;;;;5116504;27;20024;-71
2022/09/09 05:29:44;;;;;;;5.25;2.00;;;14.90;99.90;;;;;;5097141;28;20032;-72
2022/09/09 05:32:10;;;;;;;9.07;2.38;;;14.80;99.90;;;;;;5103116;28;20754;-73
2022/09/09 05:34:37;;;;;;;6.47;2.10;;;14.90;99.90;;;;;;5107780;28;20035;-72
2022/09/09 05:37:04;;;;;;;7.95;2.50;;;14.90;99.90;;;;;;5103267;28;20047;-73
2022/09/09 05:39:29;;;;;;;7.30;2.03;;;14.90;99.90;;;;;;5117045;28;20058;-72
2022/09/09 05:41:55;;;;;;;8.43;2.47;;;14.90;99.90;;;;;;5111556;27;20122;-72
2022/09/09 05:44:23;;;;;;;7.43;2.60;;;14.90;99.90;;;;;;5109698;28;20087;-72
2022/09/09 05:46:49;;;;;;;4.65;2.30;;;14.90;99.90;;;;;;5099043;28;20114;-72
2022/09/09 05:49:15;;;;;;;9.65;2.85;;;14.90;99.90;;;;;;5118216;27;20047;-72
2022/09/09 05:51:42;;;;;;;8.68;2.67;;;14.90;99.90;;;;;;5118057;27;20035;-72
2022/09/09 05:54:08;;;;;;;6.63;2.50;;;14.90;99.90;;;;;;5115712;27;20034;-70
2022/09/09 05:56:34;;;;;;;7.20;2.88;;;14.90;99.90;;;;;;5118216;27;20039;-72
2022/09/09 05:59:00;;;;;;;7.35;2.80;;;14.90;99.90;;;;;;5100319;28;20027;-72
2022/09/09 06:01:31;;;;;;;8.15;2.83;;;15.00;99.90;;;;;;5108741;27;20481;-72
2022/09/09 06:03:57;;;;;;;8.52;2.92;;;15.00;99.90;;;;;;5109024;27;20035;-72
2022/09/09 06:06:31;;;;;;;6.55;2.80;;;15.00;99.90;;;;;;5109029;27;20027;-72
2022/09/09 06:08:57;;;;;;;8.40;3.17;;;15.00;99.90;;;;;;5114756;27;20036;-73
2022/09/09 06:11:30;;;;;;;6.63;2.92;;;15.10;99.90;;;;;;5109258;27;20038;-72
2022/09/09 06:13:56;;;;;;;8.20;2.80;;;15.10;99.90;;;;;;5107989;27;20036;-72
2022/09/09 06:16:24;;;;;;;6.45;2.70;;;15.10;99.90;;;;;;5110814;27;20039;-70
2022/09/09 06:18:50;;;;;;;7.72;2.70;;;15.10;99.90;;;;;;5111066;27;20051;-72
2022/09/09 06:21:21;;;;;;;8.55;3.10;;;15.10;99.90;;;;;;5110779;27;20032;-72
2022/09/09 06:23:48;;;;;;;8.38;3.00;;;15.10;99.90;;;;;;5104832;27;20092;-72
2022/09/09 06:26:18;;;;;;;5.82;2.38;;;15.10;99.90;;;;;;5119277;27;20035;-72
2022/09/09 06:28:47;;;;;;;6.68;2.78;;;15.10;99.90;;;;;;5103143;27;20031;-72
2022/09/09 06:31:14;;;;;;;7.95;2.90;;;15.10;99.90;;;;;;5093587;28;20471;-73
2022/09/09 06:33:41;;;;;;;6.88;2.58;;;15.10;99.90;;;;;;5111051;28;20393;-72
2022/09/09 06:36:11;;;;;;;7.22;3.15;;;15.10;99.90;;;;;;5089707;28;20036;-72
2022/09/09 06:38:38;;;;;;;7.10;3.10;;;15.10;99.90;;;;;;5105259;27;20031;-72
2022/09/09 06:41:05;;;;;;;7.15;3.00;;;15.10;99.90;;;;;;5109235;27;20050;-72
2022/09/09 06:43:31;;;;;;;11.05;3.13;;;15.20;99.90;;;;;;5091582;27;20066;-72
2022/09/09 06:46:02;;;;;;;6.60;2.75;;;15.20;99.90;;;;;;5109606;27;20055;-72
2022/09/09 06:48:28;;;;;;;6.32;3.22;;;15.20;99.90;;;;;;5113983;27;20073;-72
2022/09/09 06:51:09;;;;;;;7.95;3.00;;;15.20;99.90;;;;;;5093136;28;20075;-72
2022/09/09 06:53:36;;;;;;;8.05;3.20;;;15.20;99.90;;;;;;5104725;27;20059;-73
2022/09/09 06:56:11;;;;;;;10.00;3.25;;;15.20;99.90;;;;;;5094003;28;20034;-72
2022/09/09 06:58:43;;;;;;;8.93;3.38;;;15.20;99.90;;;;;;5112973;27;20532;-71
2022/09/09 07:01:12;;;;;;;5.40;2.92;;;15.20;99.90;;;;;;5119418;27;20043;-72
2022/09/09 07:03:38;;;;;;;7.57;2.67;;;15.20;99.90;;;;;;5083752;27;20035;-72
2022/09/09 07:06:05;;;;;;;7.90;2.78;;;15.20;99.90;;;;;;5092829;28;20109;-71
2022/09/09 07:08:31;;;;;;;6.95;2.53;;;15.20;99.90;;;;;;5104446;28;20030;-71
2022/09/09 07:11:06;;;;;;;7.80;2.72;;;15.30;99.90;;;;;;5109221;27;20166;-70
2022/09/09 07:13:32;;;;;;;10.60;3.30;;;15.30;99.90;;;;;;5089786;28;20042;-71
2022/09/09 07:16:09;;;;;;;8.80;3.20;;;15.30;99.90;;;;;;5102746;27;20027;-71
2022/09/09 07:18:36;;;;;;;7.43;2.95;;;15.30;99.90;;;;;;5100104;27;20043;-71
2022/09/09 07:21:03;;;;;;;8.43;2.90;;;15.30;99.90;;;;;;5103128;27;20138;-72
2022/09/09 07:23:29;;;;;;;6.10;2.83;;;15.30;99.90;;;;;;5090631;28;20026;-72
2022/09/09 07:25:55;;;;;;;7.93;3.00;;;15.30;99.90;;;;;;5101392;27;20031;-71
2022/09/09 07:28:22;;;;;;;7.50;2.58;;;15.30;99.90;;;;;;5106209;28;20035;-71
2022/09/09 07:30:55;;;;;;;7.25;2.80;;;15.30;99.90;;;;;;5101460;28;20556;-71
2022/09/09 07:33:21;;;;;;;7.00;3.03;;;15.40;99.90;;;;;;5105226;28;20055;-71
2022/09/09 07:35:47;;;;;;;6.78;2.80;;;15.40;99.90;;;;;;5089431;28;20074;-71
2022/09/09 07:38:12;;;;;;;7.28;2.78;;;15.40;99.90;;;;;;5107236;28;20036;-71
2022/09/09 07:40:39;;;;;;;6.38;2.50;;;15.30;99.90;;;;;;5103564;28;20067;-71
2022/09/09 07:43:05;;;;;;;7.63;2.53;;;15.30;99.90;;;;;;5104651;28;20670;-71
2022/09/09 07:45:32;;;;;;;8.15;2.75;;;15.40;99.90;;;;;;5100078;28;20501;-72
2022/09/09 07:47:58;;;;;;;6.85;2.78;;;15.40;99.90;;;;;;5089347;28;20108;-71
2022/09/09 07:50:24;;;;;;;6.00;2.30;;;15.40;99.90;;;;;;5085561;28;20036;-70
2022/09/09 07:52:53;;;;;;;5.78;2.28;;;15.40;99.90;;;;;;5080067;28;20052;-71
2022/09/09 07:55:20;;;;;;;5.53;2.17;;;15.40;99.90;;;;;;5105776;28;20086;-71
2022/09/09 07:57:46;;;;;;;7.80;2.50;;;15.50;99.90;;;;;;5082492;28;20032;-71
2022/09/09 08:00:14;;;;;;;5.50;2.10;;;15.50;99.90;;;;;;5100805;28;20028;-71
2022/09/09 08:02:40;;;;;;;7.70;2.35;;;15.50;99.90;;;;;;5108885;28;20037;-71
2022/09/09 08:05:06;;;;;;;6.63;2.60;;;15.50;99.90;;;;;;5089921;28;20032;-71
2022/09/09 08:07:32;;;;;;;7.32;2.55;;;15.50;99.90;;;;;;5099272;28;20046;-71
2022/09/09 08:09:58;;;;;;;8.02;2.88;;;15.50;99.90;;;;;;5099388;28;20035;-70
2022/09/09 08:12:23;;;;;;;6.10;2.63;;;15.50;99.90;;;;;;5099244;28;20497;-70
2022/09/09 08:14:49;;;;;;;7.60;3.08;;;15.60;99.90;;;;;;5109265;28;20027;-71
2022/09/09 08:17:15;;;;;;;5.93;2.53;;;15.60;99.90;;;;;;5102748;28;20028;-71
2022/09/09 08:19:40;;;;;;;6.95;2.70;;;15.60;99.90;;;;;;5087734;28;20020;-71
2022/09/09 08:22:07;;;;;;;6.43;2.70;;;15.70;99.90;;;;;;5097419;28;20513;-71
2022/09/09 08:24:33;;;;;;;6.25;2.75;;;15.70;99.90;;;;;;5089020;28;20138;-71
2022/09/09 08:26:59;;;;;;;7.72;3.05;;;15.80;99.90;;;;;;5107546;28;20068;-70
2022/09/09 08:29:24;;;;;;;7.25;3.10;;;15.80;99.90;;;;;;5107268;28;20047;-71
2022/09/09 08:31:54;;;;;;;8.32;2.97;;;15.80;99.90;;;;;;5108544;28;20408;-71
2022/09/09 08:34:20;;;;;;;7.53;2.95;;;15.80;99.90;;;;;;5109070;28;20074;-70
2022/09/09 08:36:47;;;;;;;7.65;2.97;;;15.80;99.90;;;;;;5108756;28;20035;-70
2022/09/09 08:39:15;;;;;;;6.38;2.83;;;15.80;99.90;;;;;;5109059;28;20039;-70
2022/09/09 08:42:00;;;;;;;7.28;3.70;;;15.70;99.90;;;;;;5090468;28;20135;-71
2022/09/09 08:44:35;;;;;;;10.57;3.15;;;15.70;99.90;;;;;;5109167;28;20127;-71
2022/09/09 08:47:45;;;;;;;6.18;2.97;;;15.80;99.90;;;;;;5108870;28;20035;-71
2022/09/09 08:50:16;;;;;;;8.75;3.83;;;15.80;99.90;;;;;;5108152;28;20019;-70
2022/09/09 08:53:07;;;;;;;6.28;2.95;;;15.90;99.90;;;;;;5107319;28;20448;-71
2022/09/09 08:55:52;;;;;;;7.20;3.08;;;15.90;99.90;;;;;;5108807;28;20092;-71
2022/09/09 08:58:32;;;;;;;9.15;3.90;;;15.90;99.90;;;;;;5108572;28;20031;-71
2022/09/09 09:01:10;;;;;;;9.77;3.95;;;16.00;99.90;;;;;;5108617;28;20035;-71
2022/09/09 09:03:53;;;;;;;11.45;4.15;;;16.10;99.90;;;;;;5103577;28;20033;-72
2022/09/09 09:06:19;;;;;;;9.05;3.97;;;16.20;99.90;;;;;;5089389;28;20015;-71
2022/09/09 09:09:11;;;;;;;8.50;3.25;;;16.20;99.90;;;;;;5108262;28;20035;-71
2022/09/09 09:11:39;;;;;;;9.52;4.07;;;16.20;99.90;;;;;;5102724;28;20036;-71
2022/09/09 09:14:17;;;;;;;9.93;4.25;;;16.10;99.90;;;;;;5087549;28;20477;-71
2022/09/09 09:16:52;;;;;;;8.82;4.47;;;16.10;99.90;;;;;;5087952;28;20108;-71
2022/09/09 09:19:18;;;;;;;13.93;4.65;;;16.00;99.90;;;;;;5087866;28;20032;-72
2022/09/09 09:21:55;;;;;;;8.75;4.32;;;15.90;99.90;;;;;;5103449;28;20031;-71
2022/09/09 09:24:36;;;;;;;9.20;3.85;;;15.90;99.90;;;;;;5108012;28;20031;-71
2022/09/09 09:27:35;;;;;;;6.70;3.30;;;15.90;99.90;;;;;;5108413;28;20063;-72
2022/09/09 09:30:12;;;;;;;8.52;3.60;;;15.90;99.90;;;;;;5099423;28;20067;-72
2022/09/09 09:32:40;;;;;;;8.82;3.70;;;15.90;99.90;;;;;;5108041;28;20055;-72
2022/09/09 09:35:13;;;;;;;6.60;2.90;;;15.90;99.90;;;;;;5089884;28;20024;-72
2022/09/09 09:37:40;;;;;;;8.85;3.40;;;16.00;99.90;;;;;;5108079;28;20917;-72
2022/09/09 09:40:14;;;;;;;6.35;2.97;;;16.00;99.90;;;;;;5108009;28;20031;-72
2022/09/09 09:43:07;;;;;;;7.50;3.10;;;16.00;99.90;;;;;;5107928;28;20090;-72
2022/09/09 09:45:33;;;;;;;8.77;3.00;;;16.10;99.90;;;;;;5108082;28;20059;-71
2022/09/09 09:48:02;;;;;;;9.57;2.88;;;16.10;99.90;;;;;;5107856;28;20036;-71
2022/09/09 09:50:29;;;;;;;7.70;2.50;;;16.00;99.90;;;;;;5095699;28;20389;-72
2022/09/09 09:52:57;;;;;;;8.48;3.00;;;16.10;99.90;;;;;;5087469;28;20024;-72
2022/09/09 09:55:24;;;;;;;14.88;4.70;;;16.10;99.90;;;;;;5100772;28;20042;-72
2022/09/09 09:57:50;;;;;;;7.00;2.58;;;16.10;99.90;;;;;;5108320;28;20031;-72
2022/09/09 10:00:19;;;;;;;9.02;2.80;;;16.10;99.90;;;;;;5107713;28;20035;-71
2022/09/09 10:02:46;;;;;;;6.90;2.53;;;16.20;99.90;;;;;;5107666;28;20027;-72
2022/09/09 10:05:21;;;;;;;7.35;2.67;;;16.10;99.90;;;;;;5107920;28;20048;-71
2022/09/09 10:08:00;;;;;;;7.50;2.63;;;16.20;99.90;;;;;;5108335;28;20039;-72
2022/09/09 10:10:55;;;;;;;6.20;3.00;;;16.20;99.90;;;;;;5089442;28;20065;-72
2022/09/09 10:13:32;;;;;;;6.88;2.40;;;16.30;99.90;;;;;;5093107;28;20048;-71
2022/09/09 10:16:26;;;;;;;6.38;2.55;;;16.40;99.90;;;;;;5107419;28;20386;-72
2022/09/09 10:19:19;;;;;;;7.28;2.65;;;16.40;99.90;;;;;;5108071;28;20031;-72
2022/09/09 10:22:06;;;;;;;6.97;2.60;;;16.40;99.90;;;;;;5107541;28;20618;-72
2022/09/09 10:24:44;;;;;;;5.25;2.20;;;16.40;99.90;;;;;;5108258;28;20797;-72
2022/09/09 10:27:28;;;;;;;5.93;2.40;;;16.40;99.90;;;;;;5111043;28;20043;-72
2022/09/09 10:30:12;;;;;;;5.10;2.05;;;16.50;99.90;;;;;;5111337;28;20036;-71
2022/09/09 10:32:46;;;;;;;5.53;2.30;;;16.60;99.90;;;;;;5111329;28;20042;-72
2022/09/09 10:35:13;;;;;;;6.03;2.35;;;16.70;99.90;;;;;;5093106;28;20066;-72
2022/09/09 10:38:03;;;;;;;5.70;2.40;;;16.80;99.90;;;;;;5111433;28;20031;-72
2022/09/09 10:40:42;;;;;;;6.43;2.50;;;16.90;99.90;;;;;;5111046;28;20044;-72
2022/09/09 10:43:21;;;;;;;7.53;3.45;;;17.00;99.90;;;;;;5111114;28;20060;-71
2022/09/09 10:46:19;;;;;;;5.13;2.33;;;17.00;99.90;;;;;;5110846;28;20047;-72
2022/09/09 10:49:14;;;;;;;5.53;2.33;;;17.00;99.90;;;;;;5099648;28;20061;-72
2022/09/09 10:52:05;;;;;;;7.50;2.47;;;17.00;99.90;;;;;;5090672;28;20758;-71
2022/09/09 10:54:55;;;;;;;5.47;2.17;;;17.00;99.90;;;;;;5072405;28;20107;-70
2022/09/09 10:57:28;;;;;;;;;;;17.10;99.90;;;;;;5094667;28;20032;-71
2022/09/09 10:59:59;;;;;;;5.65;1.80;;;17.00;99.90;;;;;;5072102;28;19915;-71
2022/09/09 11:02:31;;;;;;;5.35;1.95;;;17.10;99.90;;;;;;5095116;28;20044;-71
2022/09/09 11:05:29;;;;;;;6.05;1.90;;;17.10;99.90;;;;;;5110825;28;20106;-71
2022/09/09 11:07:57;;;;;;;5.50;1.60;;;17.30;99.90;;;;;;5091361;28;20062;-70
2022/09/09 11:10:25;;;;;;;5.30;1.60;;;17.50;99.90;;;;;;5110729;28;20590;-70
2022/09/09 11:12:55;;;;;;;5.05;1.60;;;17.60;99.90;;;;;;5110669;28;20560;-70
2022/09/09 11:15:28;;;;;;;5.22;1.35;;;17.80;99.90;;;;;;5091912;28;20690;-71
2022/09/09 11:17:57;;;;;;;3.55;1.10;;;17.90;99.90;;;;;;5110459;28;20032;-71
2022/09/09 11:20:25;;;;;;;4.45;1.25;;;17.90;99.90;;;;;;5110347;28;20130;-71
2022/09/09 11:22:57;;;;;;;4.72;1.15;;;17.90;99.90;;;;;;5091961;28;20443;-70
2022/09/09 11:25:27;;;;;;;5.05;1.33;;;17.80;99.90;;;;;;5110538;28;20232;-72
2022/09/09 11:28:22;;;;;;;4.57;1.23;;;17.70;99.90;;;;;;5110447;28;20039;-71
2022/09/09 11:30:57;;;;;;;4.72;1.25;;;17.50;99.90;;;;;;5091797;28;20027;-72
2022/09/09 11:33:43;;;;;;;2.03;0.80;;;17.40;99.90;;;;;;5091969;28;20028;-71
2022/09/09 11:36:17;;;;;;;4.95;1.30;;;17.30;99.90;;;;;;5110106;28;20107;-71
2022/09/09 11:38:51;;;;;;;4.28;1.33;;;17.10;99.90;;;;;;5109151;28;20050;-70
2022/09/09 11:41:18;;;;;;;3.78;1.02;;;16.90;99.90;;;;;;5109976;28;20039;-70
2022/09/09 11:43:51;;;;;;;3.78;0.80;;;16.70;99.90;;;;;;5109763;28;20054;-70
2022/09/09 11:46:20;;;;;;;4.35;1.20;;;16.60;99.90;;;;;;5110177;28;20122;-70
2022/09/09 11:49:00;;;;;;;3.17;1.00;;;16.50;99.90;;;;;;5109983;28;20059;-70
2022/09/09 11:51:28;;;;;;;3.22;0.88;;;16.50;99.90;;;;;;5089713;28;20734;-71
2022/09/09 11:54:02;;;;;;;3.45;1.10;;;16.40;99.90;;;;;;5098141;28;20042;-71
2022/09/09 11:56:28;;;;;;;3.67;1.13;;;16.50;99.90;;;;;;5110065;28;20073;-70
2022/09/09 11:58:55;;;;;;;3.95;1.48;;;16.60;99.90;;;;;;5109697;28;20047;-71
2022/09/09 12:01:33;;;;;;;4.43;1.25;;;16.70;99.90;;;;;;5109793;28;20057;-71
2022/09/09 12:04:14;;;;;;;2.97;1.10;;;16.90;99.90;;;;;;5091368;28;20042;-71
2022/09/09 12:07:05;;;;;;;4.03;1.23;;;17.00;99.90;;;;;;5110004;28;20156;-72
2022/09/09 12:09:52;;;;;;;3.35;1.30;;;17.00;99.90;;;;;;5109571;28;20478;-72
2022/09/09 12:12:35;;;;;;;2.13;0.80;;;16.90;99.90;;;;;;5109402;28;20172;-71
2022/09/09 12:15:07;;;;;;;5.05;1.00;;;16.80;99.90;;;;;;5109663;28;20024;-71
2022/09/09 12:17:42;;;;;;;3.60;1.20;;;16.70;99.90;;;;;;5109277;28;20087;-71
2022/09/09 12:20:33;;;;;;;5.55;1.50;;;16.60;99.90;;;;;;5109544;28;20084;-71
2022/09/09 12:23:13;;;;;;;4.80;1.88;;;16.50;99.90;;;;;;5090724;28;20109;-71
2022/09/09 12:25:48;;;;;;;5.10;1.90;;;16.60;99.90;;;;;;5090895;28;20497;-71
2022/09/09 12:28:31;;;;;;;3.95;1.90;;;16.80;99.90;;;;;;5108963;28;20081;-71
2022/09/09 12:31:17;;;;;;;4.65;2.45;;;17.20;99.90;;;;;;5109212;28;20075;-71
2022/09/09 12:33:45;;;;;;;5.07;1.90;;;17.30;99.90;;;;;;5109550;28;20452;-71
2022/09/09 12:36:19;;;;;;;5.40;2.08;;;17.30;99.90;;;;;;5109207;28;20056;-71
2022/09/09 12:38:45;;;;;;;4.93;1.88;;;17.20;99.90;;;;;;5109259;28;20080;-71
2022/09/09 12:41:25;;;;;;;5.05;2.25;;;17.20;99.90;;;;;;5090417;28;20052;-71
2022/09/09 12:43:51;;;;;;;8.27;2.20;;;17.20;99.90;;;;;;5108559;28;20055;-71
2022/09/09 12:46:34;;;;;;;4.75;2.22;;;17.10;99.90;;;;;;5108840;28;20097;-71
2022/09/09 12:49:00;;;;;;;6.57;2.28;;;17.10;99.90;;;;;;5090550;28;20480;-71
2022/09/09 12:51:32;;;;;;;7.15;2.33;;;17.10;99.90;;;;;;5108638;28;20028;-72
2022/09/09 12:53:59;;;;;;;6.78;2.33;;;17.10;99.90;;;;;;5108764;28;20042;-71
2022/09/09 12:56:32;;;;;;;8.15;1.60;;;17.20;99.90;;;;;;5108314;28;20028;-71
2022/09/09 12:58:58;;;;;;;8.15;1.80;;;17.20;99.90;;;;;;5108735;28;20031;-71
2022/09/09 13:01:33;;;;;;;5.90;1.80;;;17.30;99.90;;;;;;5108426;28;20032;-71
2022/09/09 13:03:59;;;;;;;4.55;1.45;;;17.30;99.90;;;;;;5089522;28;20629;-71
2022/09/09 13:06:27;;;;;;;4.57;1.30;;;17.20;99.90;;;;;;5108456;28;20039;-71
2022/09/09 13:08:54;;;;;;;7.63;1.67;;;17.20;99.90;;;;;;5108316;28;20028;-70
2022/09/09 13:11:42;;;;;;;5.53;1.45;;;17.30;99.90;;;;;;5108451;28;20035;-71
2022/09/09 13:14:28;;;;;;;6.35;2.15;;;17.20;99.90;;;;;;5108383;28;20727;-71